• Join FlightAware (Why Join?)
  • Login
  • US Flag 
10:12PM EST


 

Airport Tracker/Info


-or-


 

Live Flight TrackerFlight Track Log ✈ AAL963 ✈ 01-Dec-2013 ✈ KDFW - SBGR / GRU

Flight Track Log - Related Links

Times and Time Zones

All times are in EST time to prevent confusion due to time zone crossing. See the AAL963 flight status page for this flight to view local times or setup timezone preferences in your user account.

Time Position Orientation Groundspeed Altitude Reporting Facility
EST Latitude Longitude Course Direction KTS MPH feet Rate Location/Type
09:53PM 32.9154 -97.0298 163° South 190 219 1,900  Level FlightAware ADS-B (KAFW)
09:55PM 32.8564 -97.0216 173° South 197 227 2,200 120 Climbing FlightAware ADS-B (KAFW)
09:55PM 32.8422 -97.0151 159° South 216 249 2,400 1,560 Climbing FlightAware ADS-B (KAFW)
09:57PM 32.7610 -96.9509 146° Southeast 296 341 4,800 1,920 Climbing FlightAware ADS-B (KAFW)
09:57PM 32.7583 -96.9313 99° East 303 349 5,300 2,220 Climbing FlightAware ADS-B (KAFW)
09:57PM 32.7583 -96.9116 90° East 304 350 5,900 2,580 Climbing FlightAware ADS-B (KAFW)
09:58PM 32.7613 -96.8698 85° East 306 352 6,900 2,460 Climbing FlightAware ADS-B (KAFW)
09:58PM 32.7624 -96.8348 88° East 314 361 7,600 2,160 Climbing FlightAware ADS-B (KAFW)
09:58PM 32.7630 -96.7993 89° East 320 368 8,400 2,340 Climbing FlightAware ADS-B (KAFW)
09:59PM 32.7632 -96.7621 90° East 327 376 9,200 2,040 Climbing FlightAware ADS-B (KAFW)
09:59PM 32.7633 -96.7262 90° East 337 388 9,800 1,620 Climbing FlightAware ADS-B (KAFW)
10:00PM 32.7637 -96.5426 90° East 412 474 12,200 1,680 Climbing FlightAware ADS-B (KAFW)
10:01PM 32.7646 -96.4462 89° East 438 504 13,500 2,100 Climbing FlightAware ADS-B (KAFW)
10:02PM 32.7619 -96.3435 92° East 453 521 15,100 2,280 Climbing FlightAware ADS-B (KAFW)
10:02PM 32.7513 -96.2510 98° East 466 536 16,500 2,220 Climbing FlightAware ADS-B (KAFW)
10:03PM 32.7379 -96.1753 102° East 478 550 17,700 2,100 Climbing FlightAware ADS-B (KAFW)
10:04PM 32.7209 -96.0743 101° East 488 562 19,000 1,800 Climbing FlightAware ADS-B (KAFW)
10:04PM 32.7072 -95.9896 101° East 505 581 19,800 1,860 Climbing FlightAware ADS-B (KAFW)
10:04PM 32.6982 -95.9330 101° East 514 592 20,500 1,560 Climbing FlightAware ADS-B
10:05PM 32.6884 -95.8719 101° East 524 603 20,900 1,500 Climbing FlightAware ADS-B (KAFW)
10:05PM 32.6843 -95.8461 101° East 526 605 21,300 1,680 Climbing FlightAware ADS-B
10:06PM 32.6655 -95.7261 101° East 544 626 22,300 1,620 Climbing FlightAware ADS-B (KAFW)
10:06PM 32.6603 -95.6628 96° East 542 624 23,000 1,860 Climbing FlightAware ADS-B
10:06PM 32.6597 -95.6338 91° East 552 635 23,200 1,500 Climbing FlightAware ADS-B
10:09PM 32.6920 -95.1338 85° East 587 676 27,400 1,500 Climbing FlightAware ADS-B
10:09PM 32.6984 -95.0335 86° East 597 687 28,000 1,140 Climbing FlightAware ADS-B
10:10PM 32.7047 -94.9349 86° East 605 696 28,600 1,140 Climbing FlightAware ADS-B
10:10PM 32.7076 -94.8829 86° East 607 699 28,900 1,140 Climbing FlightAware ADS-B
10:10PM 32.7066 -94.8324 91° East 612 704 29,200 1,020 Climbing FlightAware ADS-B
10:11PM 32.7015 -94.7859 97° East 615 708 29,400 1,320 Climbing FlightAware ADS-B
10:11PM 32.6582 -94.6319 108° East 617 710 30,600 1,500 Climbing FlightAware ADS-B
10:11PM 32.6509 -94.6104 112° Southeast 613 705 30,800 600 Climbing FlightAware ADS-B
10:15PM 32.3030 -93.9612 122° Southeast 613 705 33,000 480 Climbing FlightAware ADS-B
10:16PM 32.2395 -93.8545 125° Southeast 610 702 33,000  Level FlightAware ADS-B
10:16PM 32.1891 -93.7700 125° Southeast 610 702 33,000  Level FlightAware ADS-B
10:17PM 32.1355 -93.6805 125° Southeast 607 699 33,000  Level FlightAware ADS-B
10:18PM 32.0849 -93.5965 125° Southeast 608 700 33,000  Level FlightAware ADS-B
10:21PM 31.7792 -93.0924 125° Southeast 607 699 33,000  Level FlightAware ADS-B
10:22PM 31.6818 -92.9330 126° Southeast 606 697 33,000  Level FlightAware ADS-B
10:23PM 31.5990 -92.7963 125° Southeast 604 695 33,000  Level FlightAware ADS-B
10:23PM 31.5505 -92.7158 125° Southeast 605 696 33,000  Level FlightAware ADS-B
10:24PM 31.4538 -92.5559 125° Southeast 606 697 33,000 -60 Level FlightAware ADS-B
10:25PM 31.3717 -92.4222 125° Southeast 604 695 32,900  Descending Houston Center
10:26PM 31.2733 -92.2611 126° Southeast 607 699 33,000  Climbing Houston Center
10:27PM 31.1750 -92.1011 126° Southeast 605 696 32,900  Descending Houston Center
10:28PM 31.0614 -91.9161 126° Southeast 605 696 33,000  Climbing Houston Center
10:29PM 30.9625 -91.7575 126° Southeast 604 695 33,000  Level Houston Center
10:30PM 30.8636 -91.5983 126° Southeast 605 696 33,000  Level Houston Center
10:31PM 30.7644 -91.4406 126° Southeast 605 696 33,000 -60 Level Houston Center
10:32PM 30.6708 -91.2917 126° Southeast 604 695 32,900  Descending Houston Center
10:33PM 30.5731 -91.1347 126° Southeast 601 692 33,000  Climbing Houston Center
10:34PM 30.4758 -90.9781 126° Southeast 601 692 33,000  Level Houston Center
10:35PM 30.3564 -90.7911 126° Southeast 602 693 33,000 -60 Level Houston Center
10:36PM 30.2564 -90.6344 126° Southeast 607 699 32,900  Descending Houston Center
10:37PM 30.1575 -90.4806 127° Southeast 602 693 33,000  Climbing Houston Center
10:38PM 30.0594 -90.3267 126° Southeast 601 692 32,900  Descending Houston Center
10:39PM 29.9600 -90.1736 127° Southeast 602 693 33,000  Climbing Houston Center
10:40PM 29.8611 -90.0206 127° Southeast 602 693 33,000  Level Houston Center
10:41PM 29.7575 -89.8728 129° Southeast 600 690 33,000  Level Houston Center
10:42PM 29.6494 -89.7308 131° Southeast 596 686 33,000  Level Houston Center
10:43PM 29.5214 -89.5561 130° Southeast 599 689 33,000  Level Houston Center
10:44PM 29.4144 -89.4125 131° Southeast 597 687 33,000 -60 Level Houston Center
10:45PM 29.3092 -89.2697 130° Southeast 590 679 32,900  Descending Houston Center
10:46PM 29.2061 -89.1267 130° Southeast 584 672 33,000  Climbing Houston Center
10:47PM 29.1592 -88.9472 107° East 586 674 32,900 -60 Descending Houston Center
10:48PM 29.1086 -88.7664 108° East 595 685 32,900  Level Houston Center
10:50PM 29.0567 -88.5894 109° East 593 682 32,900  Level Houston Center
10:51PM 29.0125 -88.4083 106° East 593 682 33,000  Climbing Houston Center
10:53PM 28.9094 -88.0361 107° East 593 682 32,900 -60 Descending Houston Center
10:54PM 28.8303 -87.8711 119° Southeast 592 681 32,900  Level Houston Center
10:55PM 28.7486 -87.7106 120° Southeast 588 677 33,000  Climbing Houston Center
10:56PM 28.6669 -87.5489 120° Southeast 591 680 32,900  Descending Houston Center
10:57PM 28.5678 -87.3558 120° Southeast 591 680 33,000  Climbing Houston Center
10:58PM 28.4842 -87.1947 121° Southeast 593 682 33,000  Level Houston Center
10:59PM 28.4006 -87.0342 121° Southeast 593 682 33,000 -60 Level Houston Center
11:00PM 28.3197 -86.8794 121° Southeast 590 679 32,900 -60 Descending Jacksonville Center
11:01PM 28.2369 -86.7208 121° Southeast 590 679 32,900  Level Jacksonville Center
11:02PM 28.1558 -86.5647 120° Southeast 589 678 32,900  Level Jacksonville Center
11:03PM 28.0708 -86.3969 120° Southeast 596 686 33,000  Climbing Jacksonville Center
11:04PM 27.9897 -86.2392 120° Southeast 591 680 32,900  Descending Jacksonville Center
11:05PM 27.9042 -86.0697 120° Southeast 591 680 33,000  Climbing Jacksonville Center
11:06PM 27.8244 -85.9192 121° Southeast 586 674 32,900 -60 Descending Jacksonville Center
11:08PM 27.6617 -85.5950 119° Southeast 572 658 32,900  Level Miami Center
11:09PM 27.5656 -85.4264 123° Southeast 592 681 33,000  Climbing Miami Center
11:10PM 27.4831 -85.2683 120° Southeast 592 681 33,000 -60 Level Miami Center
11:11PM 27.4067 -85.1133 119° Southeast 583 671 32,900  Descending Miami Center
11:12PM 27.3197 -84.9575 122° Southeast 583 671 33,000  Climbing Miami Center
11:13PM 27.2386 -84.8028 120° Southeast 578 665 33,000 -60 Level Miami Center
11:14PM 27.1572 -84.6503 121° Southeast 576 663 32,900  Descending Miami Center
11:15PM 27.0742 -84.4911 120° Southeast 582 670 33,000  Climbing Miami Center
11:16PM 26.9903 -84.3364 121° Southeast 582 670 32,900  Descending Miami Center
11:17PM 26.9125 -84.1850 120° Southeast 582 670 33,000  Climbing Miami Center
11:18PM 26.8306 -84.0311 121° Southeast 582 670 32,900 -60 Descending Miami Center
11:19PM 26.7483 -83.8797 121° Southeast 582 670 32,900  Level Miami Center
11:20PM 26.6619 -83.7258 122° Southeast 582 670 33,000  Climbing Miami Center
11:21PM 26.5833 -83.5775 121° Southeast 582 670 33,000  Level Miami Center
11:22PM 26.4986 -83.4219 121° Southeast 577 664 33,000 -60 Level Miami Center
11:23PM 26.4175 -83.2736 121° Southeast 577 664 32,900 -60 Descending Miami Center
11:24PM 26.3303 -83.1208 122° Southeast 582 670 32,900  Level Miami Center
11:29PM 25.8712 -82.2917 122° Southeast 567 652 33,000  Climbing FlightAware ADS-B (KMCO)
11:30PM 25.8193 -82.1992 122° Southeast 567 652 33,000  Level FlightAware ADS-B (KMCO)
11:35PM 25.4317 -81.5149 122° Southeast 566 651 33,000 -60 Level FlightAware ADS-B (KMCO)
11:36PM 25.3308 -81.3436 122° Southeast 566 651 32,900  Descending Miami Center
11:37PM 25.2475 -81.1983 122° Southeast 571 657 33,000  Climbing Miami Center
11:38PM 25.1639 -81.0531 122° Southeast 566 651 32,900  Descending Miami Center
11:39PM 25.0803 -80.9081 122° Southeast 566 651 33,000  Climbing Miami Center
11:40PM 24.9964 -80.7631 123° Southeast 566 651 33,000  Level Miami Center
11:41PM 24.9103 -80.6183 123° Southeast 566 651 33,000 -60 Level Miami Center
11:42PM 24.8283 -80.4739 122° Southeast 566 651 32,900 -60 Descending Miami Center
11:43PM 24.7461 -80.3319 123° Southeast 560 644 32,900  Level Miami Center
11:44PM 24.6617 -80.1903 123° Southeast 560 644 32,900  Level Miami Center
11:45PM 24.5789 -80.0486 123° Southeast 555 639 33,000  Climbing Miami Center
11:46PM 24.4942 -79.9050 123° Southeast 561 646 33,000  Level Miami Center
11:47PM 24.4114 -79.7617 122° Southeast 556 640 33,000  Level Miami Center
11:48PM 24.3306 -79.6183 122° Southeast 556 640 33,000  Level Miami Center
11:49PM 24.2453 -79.4842 125° Southeast 550 633 33,000 -60 Level Miami Center
11:50PM 24.1642 -79.3458 123° Southeast 550 633 32,900  Descending Miami Center
11:51PM 24.0806 -79.2122 124° Southeast 550 633 33,000  Climbing Miami Center
11:52PM 23.9969 -79.0811 125° Southeast 536 617 33,000  Level Miami Center
11:54PM 24.2268 -79.1574 341° North  Level FlightAware Approximate
12:01AM 25.1949 -79.5313 341° North  Level FlightAware Approximate
12:02AM 25.3337 -79.5834 341° North  Level FlightAware Approximate
12:03AM 25.4725 -79.6356 341° North  Level FlightAware Approximate
12:04AM 25.6108 -79.6893 341° North  Level FlightAware Approximate
12:05AM 25.7491 -79.7431 341° North  Level FlightAware Approximate
12:06AM 25.8874 -79.7971 341° North  Level FlightAware Approximate
12:07AM 26.0256 -79.8512 341° North  Level FlightAware Approximate
12:08AM 26.1638 -79.9056 340° North  Level FlightAware Approximate
12:09AM 26.3016 -79.9613 340° North  Level FlightAware Approximate
12:10AM 26.4393 -80.0173 340° North  Level FlightAware Approximate
12:11AM 26.5770 -80.0733 340° North  Level FlightAware Approximate
12:12AM 26.6561 -80.0951 145° Southeast  Level FlightAware Approximate
12:13AM 26.5364 -80.0005 145° Southeast  Level FlightAware Approximate
12:14AM 26.4166 -79.9061 145° Southeast  Level FlightAware Approximate
12:15AM 26.2968 -79.8119 145° Southeast  Level FlightAware Approximate
12:16AM 26.1769 -79.7179 145° Southeast  Level FlightAware Approximate
12:17AM 26.0569 -79.6241 145° Southeast  Level FlightAware Approximate
12:18AM 25.9375 -79.5296 144° Southeast  Level FlightAware Approximate
12:19AM 25.8189 -79.4339 144° Southeast  Level FlightAware Approximate
12:20AM 25.7003 -79.3383 144° Southeast  Level FlightAware Approximate
12:21AM 25.5816 -79.2430 144° Southeast  Level FlightAware Approximate
12:22AM 25.4628 -79.1478 144° Southeast  Level FlightAware Approximate
12:23AM 25.3440 -79.0528 144° Southeast  Level FlightAware Approximate
12:24AM 25.2251 -78.9580 144° Southeast  Level FlightAware Approximate
12:25AM 25.1061 -78.8634 144° Southeast  Level FlightAware Approximate
12:26AM 24.9871 -78.7690 144° Southeast  Level FlightAware Approximate
12:27AM 24.8678 -78.6752 145° Southeast  Level FlightAware Approximate
12:28AM 24.7477 -78.5826 145° Southeast  Level FlightAware Approximate
12:29AM 24.6276 -78.4903 145° Southeast  Level FlightAware Approximate
12:30AM 24.5073 -78.3981 145° Southeast  Level FlightAware Approximate
12:31AM 24.3871 -78.3061 145° Southeast  Level FlightAware Approximate
12:32AM 24.2667 -78.2142 145° Southeast  Level FlightAware Approximate
12:33AM 24.1464 -78.1226 145° Southeast  Level FlightAware Approximate
12:34AM 24.0297 -78.0255 142° Southeast  Level FlightAware Approximate
12:35AM 23.9109 -77.9315 145° Southeast  Level FlightAware Approximate
12:36AM 23.7910 -77.8395 145° Southeast  Level FlightAware Approximate
12:37AM 23.6709 -77.7476 145° Southeast  Level FlightAware Approximate
12:38AM 23.5508 -77.6559 145° Southeast  Level FlightAware Approximate
12:39AM 23.4307 -77.5644 145° Southeast  Level FlightAware Approximate
12:40AM 23.3105 -77.4731 145° Southeast  Level FlightAware Approximate
12:41AM 23.1903 -77.3819 145° Southeast  Level FlightAware Approximate
12:42AM 23.0700 -77.2908 145° Southeast  Level FlightAware Approximate
12:43AM 22.9496 -77.2000 145° Southeast  Level FlightAware Approximate
12:44AM 22.8292 -77.1092 145° Southeast  Level FlightAware Approximate
12:45AM 22.7087 -77.0187 145° Southeast  Level FlightAware Approximate
12:46AM 22.5882 -76.9283 145° Southeast  Level FlightAware Approximate
12:47AM 22.4677 -76.8381 145° Southeast  Level FlightAware Approximate
12:48AM 22.3471 -76.7480 145° Southeast  Level FlightAware Approximate
12:49AM 22.2264 -76.6581 145° Southeast  Level FlightAware Approximate
12:50AM 22.1057 -76.5683 145° Southeast  Level FlightAware Approximate
12:51AM 21.9849 -76.4787 145° Southeast  Level FlightAware Approximate
12:52AM 21.8641 -76.3892 145° Southeast  Level FlightAware Approximate
12:53AM 21.7433 -76.2999 146° Southeast  Level FlightAware Approximate
12:54AM 21.6224 -76.2108 146° Southeast  Level FlightAware Approximate
12:55AM 21.5014 -76.1217 146° Southeast  Level FlightAware Approximate
12:56AM 21.3804 -76.0329 146° Southeast  Level FlightAware Approximate
12:57AM 21.2594 -75.9442 146° Southeast  Level FlightAware Approximate
12:58AM 21.1383 -75.8556 146° Southeast  Level FlightAware Approximate
12:59AM 21.0172 -75.7672 146° Southeast  Level FlightAware Approximate
01:00AM 20.8960 -75.6789 146° Southeast  Level FlightAware Approximate
01:01AM 20.7748 -75.5908 146° Southeast  Level FlightAware Approximate
01:02AM 20.6535 -75.5028 146° Southeast  Level FlightAware Approximate
01:03AM 20.5322 -75.4149 146° Southeast  Level FlightAware Approximate
01:04AM 20.4108 -75.3272 146° Southeast  Level FlightAware Approximate
01:05AM 20.2894 -75.2396 146° Southeast  Level FlightAware Approximate
01:06AM 20.1680 -75.1522 146° Southeast  Level FlightAware Approximate
01:07AM 20.0465 -75.0649 146° Southeast  Level FlightAware Approximate
01:08AM 19.9250 -74.9777 146° Southeast  Level FlightAware Approximate
01:09AM 19.8034 -74.8907 146° Southeast  Level FlightAware Approximate
01:10AM 19.6818 -74.8038 146° Southeast  Level FlightAware Approximate
01:11AM 19.5601 -74.7170 146° Southeast  Level FlightAware Approximate
01:12AM 19.4384 -74.6303 146° Southeast  Level FlightAware Approximate
01:13AM 19.3167 -74.5438 146° Southeast  Level FlightAware Approximate
01:14AM 19.1949 -74.4575 146° Southeast  Level FlightAware Approximate
01:15AM 19.0731 -74.3712 146° Southeast  Level FlightAware Approximate
01:16AM 18.9515 -74.2847 146° Southeast  Level FlightAware Approximate
01:17AM 18.8298 -74.1983 146° Southeast  Level FlightAware Approximate
01:18AM 18.7081 -74.1121 146° Southeast  Level FlightAware Approximate
01:19AM 18.5864 -74.0259 146° Southeast  Level FlightAware Approximate
01:20AM 18.4646 -73.9399 146° Southeast  Level FlightAware Approximate
01:21AM 18.3428 -73.8540 146° Southeast  Level FlightAware Approximate
01:22AM 18.2209 -73.7682 146° Southeast  Level FlightAware Approximate
01:23AM 18.0990 -73.6826 146° Southeast  Level FlightAware Approximate
01:24AM 17.9771 -73.5970 146° Southeast  Level FlightAware Approximate
01:25AM 17.8552 -73.5116 146° Southeast  Level FlightAware Approximate
01:26AM 17.7332 -73.4263 146° Southeast  Level FlightAware Approximate
01:27AM 17.6111 -73.3411 146° Southeast  Level FlightAware Approximate
01:28AM 17.4890 -73.2561 146° Southeast  Level FlightAware Approximate
01:29AM 17.3669 -73.1711 146° Southeast  Level FlightAware Approximate
01:30AM 17.2448 -73.0863 146° Southeast  Level FlightAware Approximate
01:31AM 17.1226 -73.0015 146° Southeast  Level FlightAware Approximate
01:32AM 17.0004 -72.9169 146° Southeast  Level FlightAware Approximate
01:33AM 16.8780 -72.8325 147° Southeast  Level FlightAware Approximate
01:34AM 16.7557 -72.7483 147° Southeast  Level FlightAware Approximate
01:35AM 16.6333 -72.6641 147° Southeast  Level FlightAware Approximate
01:36AM 16.5109 -72.5800 147° Southeast  Level FlightAware Approximate
01:37AM 16.3884 -72.4960 147° Southeast  Level FlightAware Approximate
01:38AM 16.2659 -72.4122 147° Southeast  Level FlightAware Approximate
01:39AM 16.1434 -72.3284 147° Southeast  Level FlightAware Approximate
01:40AM 16.0208 -72.2448 147° Southeast  Level FlightAware Approximate
01:41AM 15.8982 -72.1612 147° Southeast  Level FlightAware Approximate
01:42AM 15.7756 -72.0778 147° Southeast  Level FlightAware Approximate
01:43AM 15.6530 -71.9945 147° Southeast  Level FlightAware Approximate
01:44AM 15.5303 -71.9112 147° Southeast  Level FlightAware Approximate
01:45AM 15.4075 -71.8281 147° Southeast  Level FlightAware Approximate
01:46AM 15.2848 -71.7450 147° Southeast  Level FlightAware Approximate
01:47AM 15.1620 -71.6621 147° Southeast  Level FlightAware Approximate
01:48AM 15.0392 -71.5792 147° Southeast  Level FlightAware Approximate
01:49AM 14.9164 -71.4965 147° Southeast  Level FlightAware Approximate
01:50AM 14.7935 -71.4138 147° Southeast  Level FlightAware Approximate
01:51AM 14.6706 -71.3312 147° Southeast  Level FlightAware Approximate
01:52AM 14.5477 -71.2487 147° Southeast  Level FlightAware Approximate
01:53AM 14.4247 -71.1664 147° Southeast  Level FlightAware Approximate
01:54AM 14.3017 -71.0841 147° Southeast  Level FlightAware Approximate
01:55AM 14.1789 -71.0020 147° Southeast  Level FlightAware Approximate
01:56AM 14.0561 -70.9201 147° Southeast  Level FlightAware Approximate
01:57AM 13.9333 -70.8382 147° Southeast  Level FlightAware Approximate
01:58AM 13.8104 -70.7564 147° Southeast  Level FlightAware Approximate
01:59AM 13.6875 -70.6747 147° Southeast  Level FlightAware Approximate
02:00AM 13.5646 -70.5931 147° Southeast  Level FlightAware Approximate
02:01AM 13.4416 -70.5115 147° Southeast  Level FlightAware Approximate
02:02AM 13.3186 -70.4301 147° Southeast  Level FlightAware Approximate
02:03AM 13.1956 -70.3487 147° Southeast  Level FlightAware Approximate
02:04AM 13.0726 -70.2674 147° Southeast  Level FlightAware Approximate
02:05AM 12.9495 -70.1862 147° Southeast  Level FlightAware Approximate
02:06AM 12.8265 -70.1051 147° Southeast  Level FlightAware Approximate
02:07AM 12.7033 -70.0240 147° Southeast  Level FlightAware Approximate
02:08AM 12.5802 -69.9431 147° Southeast  Level FlightAware Approximate
02:09AM 12.4571 -69.8622 147° Southeast  Level FlightAware Approximate
02:10AM 12.3339 -69.7814 147° Southeast  Level FlightAware Approximate
02:11AM 12.2107 -69.7006 147° Southeast  Level FlightAware Approximate
02:12AM 12.0872 -69.6204 148° Southeast  Level FlightAware Approximate
02:13AM 11.9633 -69.5408 148° Southeast  Level FlightAware Approximate
02:14AM 11.8393 -69.4614 148° Southeast  Level FlightAware Approximate
02:15AM 11.7154 -69.3820 148° Southeast  Level FlightAware Approximate
02:16AM 11.5914 -69.3027 148° Southeast  Level FlightAware Approximate
02:17AM 11.4674 -69.2235 148° Southeast  Level FlightAware Approximate
02:18AM 11.3434 -69.1443 148° Southeast  Level FlightAware Approximate
02:19AM 11.2193 -69.0652 148° Southeast  Level FlightAware Approximate
02:20AM 11.0953 -68.9862 148° Southeast  Level FlightAware Approximate
02:21AM 10.9712 -68.9072 148° Southeast  Level FlightAware Approximate
02:22AM 10.8469 -68.8282 148° Southeast  Level FlightAware Approximate
02:23AM 10.7228 -68.7487 147° Southeast  Level FlightAware Approximate
02:24AM 10.5998 -68.6676 147° Southeast  Level FlightAware Approximate
02:25AM 10.4769 -68.5865 147° Southeast  Level FlightAware Approximate
02:26AM 10.3539 -68.5055 147° Southeast  Level FlightAware Approximate
02:27AM 10.2308 -68.4245 147° Southeast  Level FlightAware Approximate
02:28AM 10.1077 -68.3437 147° Southeast  Level FlightAware Approximate
02:29AM 9.9841 -68.2637 148° Southeast  Level FlightAware Approximate
02:30AM 9.8602 -68.1842 148° Southeast  Level FlightAware Approximate
02:31AM 9.7363 -68.1048 148° Southeast  Level FlightAware Approximate
02:32AM 9.6124 -68.0255 148° Southeast  Level FlightAware Approximate
02:33AM 9.4884 -67.9462 148° Southeast  Level FlightAware Approximate
02:34AM 9.3644 -67.8669 148° Southeast  Level FlightAware Approximate
02:35AM 9.2404 -67.7878 148° Southeast  Level FlightAware Approximate
02:36AM 9.1164 -67.7086 148° Southeast  Level FlightAware Approximate
02:37AM 8.9924 -67.6296 148° Southeast  Level FlightAware Approximate
02:38AM 8.8683 -67.5506 148° Southeast  Level FlightAware Approximate
02:39AM 8.7443 -67.4716 148° Southeast  Level FlightAware Approximate
02:40AM 8.6202 -67.3927 148° Southeast  Level FlightAware Approximate
02:41AM 8.4961 -67.3138 148° Southeast  Level FlightAware Approximate
02:42AM 8.3720 -67.2350 148° Southeast  Level FlightAware Approximate
02:43AM 8.2478 -67.1563 148° Southeast  Level FlightAware Approximate
02:44AM 8.1237 -67.0776 148° Southeast  Level FlightAware Approximate
02:45AM 7.9995 -66.9989 148° Southeast  Level FlightAware Approximate
02:46AM 7.8754 -66.9203 148° Southeast  Level FlightAware Approximate
02:47AM 7.7512 -66.8417 148° Southeast  Level FlightAware Approximate
02:48AM 7.6270 -66.7632 148° Southeast  Level FlightAware Approximate
02:49AM 7.5027 -66.6847 148° Southeast  Level FlightAware Approximate
02:50AM 7.3785 -66.6063 148° Southeast  Level FlightAware Approximate
02:51AM 7.2543 -66.5279 148° Southeast  Level FlightAware Approximate
02:52AM 7.1300 -66.4496 148° Southeast  Level FlightAware Approximate
02:53AM 7.0057 -66.3713 148° Southeast  Level FlightAware Approximate
02:54AM 6.8815 -66.2931 148° Southeast  Level FlightAware Approximate
02:55AM 6.7572 -66.2148 148° Southeast  Level FlightAware Approximate
02:56AM 6.6328 -66.1367 148° Southeast  Level FlightAware Approximate
02:57AM 6.5085 -66.0585 148° Southeast  Level FlightAware Approximate
02:58AM 6.3842 -65.9805 148° Southeast  Level FlightAware Approximate
02:59AM 6.2598 -65.9024 148° Southeast  Level FlightAware Approximate
03:00AM 6.1355 -65.8244 148° Southeast  Level FlightAware Approximate
03:01AM 6.0111 -65.7464 148° Southeast  Level FlightAware Approximate
03:02AM 5.8867 -65.6684 148° Southeast  Level FlightAware Approximate
03:03AM 5.7626 -65.5907 148° Southeast  Level FlightAware Approximate
03:04AM 5.6384 -65.5129 148° Southeast  Level FlightAware Approximate
03:05AM 5.5142 -65.4352 148° Southeast  Level FlightAware Approximate
03:06AM 5.3900 -65.3576 148° Southeast  Level FlightAware Approximate
03:07AM 5.2658 -65.2799 148° Southeast  Level FlightAware Approximate
03:08AM 5.1416 -65.2023 148° Southeast  Level FlightAware Approximate
03:09AM 5.0173 -65.1247 148° Southeast  Level FlightAware Approximate
03:10AM 4.8931 -65.0472 148° Southeast  Level FlightAware Approximate
03:11AM 4.7688 -64.9697 148° Southeast  Level FlightAware Approximate
03:12AM 4.6446 -64.8922 148° Southeast  Level FlightAware Approximate
03:13AM 4.5203 -64.8147 148° Southeast  Level FlightAware Approximate
03:14AM 4.3961 -64.7373 148° Southeast  Level FlightAware Approximate
03:15AM 4.2718 -64.6599 148° Southeast  Level FlightAware Approximate
03:16AM 4.1475 -64.5825 148° Southeast  Level FlightAware Approximate
03:17AM 4.0232 -64.5051 148° Southeast  Level FlightAware Approximate
03:18AM 3.8989 -64.4278 148° Southeast  Level FlightAware Approximate
03:19AM 3.7746 -64.3504 148° Southeast  Level FlightAware Approximate
03:20AM 3.6503 -64.2731 148° Southeast  Level FlightAware Approximate
03:21AM 3.5260 -64.1959 148° Southeast  Level FlightAware Approximate
03:22AM 3.4016 -64.1186 148° Southeast  Level FlightAware Approximate
03:23AM 3.2773 -64.0414 148° Southeast  Level FlightAware Approximate
03:24AM 3.1530 -63.9642 148° Southeast  Level FlightAware Approximate
03:25AM 3.0286 -63.8870 148° Southeast  Level FlightAware Approximate
03:26AM 2.9043 -63.8098 148° Southeast  Level FlightAware Approximate
03:27AM 2.7799 -63.7327 148° Southeast  Level FlightAware Approximate
03:28AM 2.6556 -63.6555 148° Southeast  Level FlightAware Approximate
03:29AM 2.5312 -63.5784 148° Southeast  Level FlightAware Approximate
03:30AM 2.4070 -63.5014 148° Southeast  Level FlightAware Approximate
03:31AM 2.2829 -63.4244 148° Southeast  Level FlightAware Approximate
03:32AM 2.1587 -63.3475 148° Southeast  Level FlightAware Approximate
03:33AM 2.0346 -63.2706 148° Southeast  Level FlightAware Approximate
03:34AM 1.9104 -63.1936 148° Southeast  Level FlightAware Approximate
03:35AM 1.7862 -63.1167 148° Southeast  Level FlightAware Approximate
03:36AM 1.6621 -63.0398 148° Southeast  Level FlightAware Approximate
03:37AM 1.5379 -62.9630 148° Southeast  Level FlightAware Approximate
03:38AM 1.4137 -62.8861 148° Southeast  Level FlightAware Approximate
03:39AM 1.2895 -62.8092 148° Southeast  Level FlightAware Approximate
03:40AM 1.1654 -62.7323 148° Southeast  Level FlightAware Approximate
03:41AM 1.0412 -62.6555 148° Southeast  Level FlightAware Approximate
03:42AM 0.9170 -62.5786 148° Southeast  Level FlightAware Approximate
03:43AM 0.7928 -62.5018 148° Southeast  Level FlightAware Approximate
03:44AM 0.6686 -62.4249 148° Southeast  Level FlightAware Approximate
03:45AM 0.5444 -62.3481 148° Southeast  Level FlightAware Approximate
03:46AM 0.4203 -62.2713 148° Southeast  Level FlightAware Approximate
03:47AM 0.2961 -62.1944 148° Southeast  Level FlightAware Approximate
03:48AM 0.1719 -62.1176 148° Southeast  Level FlightAware Approximate
03:49AM 0.0477 -62.0407 148° Southeast  Level FlightAware Approximate
03:50AM -0.0765 -61.9639 148° Southeast  Level FlightAware Approximate
03:51AM -0.2007 -61.8871 148° Southeast  Level FlightAware Approximate
03:52AM -0.3249 -61.8103 148° Southeast  Level FlightAware Approximate
03:53AM -0.4491 -61.7334 148° Southeast  Level FlightAware Approximate
03:54AM -0.5733 -61.6566 148° Southeast  Level FlightAware Approximate
03:55AM -0.6974 -61.5797 148° Southeast  Level FlightAware Approximate
03:56AM -0.8216 -61.5029 148° Southeast  Level FlightAware Approximate
03:57AM -0.9458 -61.4260 148° Southeast  Level FlightAware Approximate
03:58AM -1.0700 -61.3492 148° Southeast  Level FlightAware Approximate
03:59AM -1.1942 -61.2723 148° Southeast  Level FlightAware Approximate
04:00AM -1.3184 -61.1954 148° Southeast  Level FlightAware Approximate
04:01AM -1.4425 -61.1186 148° Southeast  Level FlightAware Approximate
04:02AM -1.5667 -61.0417 148° Southeast  Level FlightAware Approximate
04:03AM -1.6909 -60.9648 148° Southeast  Level FlightAware Approximate
04:04AM -1.8151 -60.8879 148° Southeast  Level FlightAware Approximate
04:05AM -1.9392 -60.8110 148° Southeast  Level FlightAware Approximate
04:06AM -2.0634 -60.7341 148° Southeast  Level FlightAware Approximate
04:07AM -2.1875 -60.6571 148° Southeast  Level FlightAware Approximate
04:08AM -2.3117 -60.5802 148° Southeast  Level FlightAware Approximate
04:09AM -2.4358 -60.5032 148° Southeast  Level FlightAware Approximate
04:10AM -2.5600 -60.4262 148° Southeast  Level FlightAware Approximate
04:11AM -2.6841 -60.3492 148° Southeast  Level FlightAware Approximate
04:12AM -2.8083 -60.2722 148° Southeast  Level FlightAware Approximate
04:13AM -2.9324 -60.1952 148° Southeast  Level FlightAware Approximate
04:14AM -3.0565 -60.1181 148° Southeast  Level FlightAware Approximate
04:15AM -3.1806 -60.0411 148° Southeast  Level FlightAware Approximate
04:16AM -3.3047 -59.9640 148° Southeast  Level FlightAware Approximate
04:17AM -3.4289 -59.8869 148° Southeast  Level FlightAware Approximate
04:18AM -3.5530 -59.8098 148° Southeast  Level FlightAware Approximate
04:19AM -3.6771 -59.7327 148° Southeast  Level FlightAware Approximate
04:20AM -3.8012 -59.6555 148° Southeast  Level FlightAware Approximate
04:21AM -3.9252 -59.5783 148° Southeast  Level FlightAware Approximate
04:22AM -4.0493 -59.5011 148° Southeast  Level FlightAware Approximate
04:23AM -4.1734 -59.4239 148° Southeast  Level FlightAware Approximate
04:24AM -4.2974 -59.3466 148° Southeast  Level FlightAware Approximate
04:25AM -4.4215 -59.2693 148° Southeast  Level FlightAware Approximate
04:26AM -4.5455 -59.1920 148° Southeast  Level FlightAware Approximate
04:27AM -4.6696 -59.1147 148° Southeast  Level FlightAware Approximate
04:28AM -4.7936 -59.0373 148° Southeast  Level FlightAware Approximate
04:29AM -4.9176 -58.9600 148° Southeast  Level FlightAware Approximate
04:30AM -5.0416 -58.8825 148° Southeast  Level FlightAware Approximate
04:31AM -5.1656 -58.8051 148° Southeast  Level FlightAware Approximate
04:32AM -5.2896 -58.7276 148° Southeast  Level FlightAware Approximate
04:33AM -5.4136 -58.6501 148° Southeast  Level FlightAware Approximate
04:34AM -5.5376 -58.5726 148° Southeast  Level FlightAware Approximate
04:35AM -5.6615 -58.4950 148° Southeast  Level FlightAware Approximate
04:36AM -5.7855 -58.4174 148° Southeast  Level FlightAware Approximate
04:37AM -5.9094 -58.3398 148° Southeast  Level FlightAware Approximate
04:38AM -6.0333 -58.2621 148° Southeast  Level FlightAware Approximate
04:39AM -6.1573 -58.1844 148° Southeast  Level FlightAware Approximate
04:40AM -6.2812 -58.1066 148° Southeast  Level FlightAware Approximate
04:41AM -6.4051 -58.0289 148° Southeast  Level FlightAware Approximate
04:42AM -6.5290 -57.9510 148° Southeast  Level FlightAware Approximate
04:43AM -6.6528 -57.8732 148° Southeast  Level FlightAware Approximate
04:44AM -6.7767 -57.7953 148° Southeast  Level FlightAware Approximate
04:45AM -6.9005 -57.7173 148° Southeast  Level FlightAware Approximate
04:46AM -7.0244 -57.6394 148° Southeast  Level FlightAware Approximate
04:47AM -7.1482 -57.5613 148° Southeast  Level FlightAware Approximate
04:48AM -7.2720 -57.4833 148° Southeast  Level FlightAware Approximate
04:49AM -7.3958 -57.4052 148° Southeast  Level FlightAware Approximate
04:50AM -7.5196 -57.3270 148° Southeast  Level FlightAware Approximate
04:51AM -7.6434 -57.2488 148° Southeast  Level FlightAware Approximate
04:52AM -7.7671 -57.1706 148° Southeast  Level FlightAware Approximate
04:53AM -7.8908 -57.0923 148° Southeast  Level FlightAware Approximate
04:54AM -8.0146 -57.0140 148° Southeast  Level FlightAware Approximate
04:55AM -8.1383 -56.9356 148° Southeast  Level FlightAware Approximate
04:56AM -8.2620 -56.8572 148° Southeast  Level FlightAware Approximate
04:57AM -8.3857 -56.7787 148° Southeast  Level FlightAware Approximate
04:58AM -8.5093 -56.7002 148° Southeast  Level FlightAware Approximate
04:59AM -8.6330 -56.6216 148° Southeast  Level FlightAware Approximate
05:00AM -8.7566 -56.5430 148° Southeast  Level FlightAware Approximate
05:01AM -8.8802 -56.4643 148° Southeast  Level FlightAware Approximate
05:02AM -9.0038 -56.3856 148° Southeast  Level FlightAware Approximate
05:03AM -9.1274 -56.3068 148° Southeast  Level FlightAware Approximate
05:04AM -9.2510 -56.2279 148° Southeast  Level FlightAware Approximate
05:05AM -9.3745 -56.1490 148° Southeast  Level FlightAware Approximate
05:06AM -9.4980 -56.0701 148° Southeast  Level FlightAware Approximate
05:07AM -9.6216 -55.9911 148° Southeast  Level FlightAware Approximate
05:08AM -9.7451 -55.9120 148° Southeast  Level FlightAware Approximate
05:09AM -9.8685 -55.8329 148° Southeast  Level FlightAware Approximate
05:10AM -9.9920 -55.7537 148° Southeast  Level FlightAware Approximate
05:11AM -10.1154 -55.6744 148° Southeast  Level FlightAware Approximate
05:12AM -10.2389 -55.5951 148° Southeast  Level FlightAware Approximate
05:13AM -10.3623 -55.5157 148° Southeast  Level FlightAware Approximate
05:14AM -10.4856 -55.4363 148° Southeast  Level FlightAware Approximate
05:15AM -10.6090 -55.3568 148° Southeast  Level FlightAware Approximate
05:16AM -10.7323 -55.2772 148° Southeast  Level FlightAware Approximate
05:17AM -10.8557 -55.1976 148° Southeast  Level FlightAware Approximate
05:18AM -10.9790 -55.1179 148° Southeast  Level FlightAware Approximate
05:19AM -11.1022 -55.0382 148° Southeast  Level FlightAware Approximate
05:20AM -11.2255 -54.9584 148° Southeast  Level FlightAware Approximate
05:21AM -11.3487 -54.8785 148° Southeast  Level FlightAware Approximate
05:22AM -11.4720 -54.7985 148° Southeast  Level FlightAware Approximate
05:23AM -11.5952 -54.7185 148° Southeast  Level FlightAware Approximate
05:24AM -11.7183 -54.6384 148° Southeast  Level FlightAware Approximate
05:25AM -11.8415 -54.5582 147° Southeast  Level FlightAware Approximate
05:26AM -11.9646 -54.4780 147° Southeast  Level FlightAware Approximate
05:27AM -12.0877 -54.3976 147° Southeast  Level FlightAware Approximate
05:28AM -12.2108 -54.3172 147° Southeast  Level FlightAware Approximate
05:29AM -12.3339 -54.2368 147° Southeast  Level FlightAware Approximate
05:30AM -12.4569 -54.1562 147° Southeast  Level FlightAware Approximate
05:31AM -12.5799 -54.0756 147° Southeast  Level FlightAware Approximate
05:32AM -12.7029 -53.9949 147° Southeast  Level FlightAware Approximate
05:33AM -12.8259 -53.9141 147° Southeast  Level FlightAware Approximate
05:34AM -12.9488 -53.8333 147° Southeast  Level FlightAware Approximate
05:35AM -13.0715 -53.7525 147° Southeast  Level FlightAware Approximate
05:36AM -13.1942 -53.6716 147° Southeast  Level FlightAware Approximate
05:37AM -13.3168 -53.5907 147° Southeast  Level FlightAware Approximate
05:38AM -13.4394 -53.5097 147° Southeast  Level FlightAware Approximate
05:39AM -13.5620 -53.4285 147° Southeast  Level FlightAware Approximate
05:40AM -13.6846 -53.3473 147° Southeast  Level FlightAware Approximate
05:41AM -13.8071 -53.2661 147° Southeast  Level FlightAware Approximate
05:42AM -13.9296 -53.1847 147° Southeast  Level FlightAware Approximate
05:43AM -14.0521 -53.1032 147° Southeast  Level FlightAware Approximate
05:44AM -14.1746 -53.0217 147° Southeast  Level FlightAware Approximate
05:45AM -14.2970 -52.9401 147° Southeast  Level FlightAware Approximate
05:46AM -14.4194 -52.8583 147° Southeast  Level FlightAware Approximate
05:47AM -14.5418 -52.7765 147° Southeast  Level FlightAware Approximate
05:48AM -14.6641 -52.6946 147° Southeast  Level FlightAware Approximate
05:49AM -14.7865 -52.6127 147° Southeast  Level FlightAware Approximate
05:50AM -14.9087 -52.5306 147° Southeast  Level FlightAware Approximate
05:51AM -15.0310 -52.4484 147° Southeast  Level FlightAware Approximate
05:52AM -15.1532 -52.3661 147° Southeast  Level FlightAware Approximate
05:53AM -15.2754 -52.2837 147° Southeast  Level FlightAware Approximate
05:54AM -15.3976 -52.2013 147° Southeast  Level FlightAware Approximate
05:55AM -15.5197 -52.1187 147° Southeast  Level FlightAware Approximate
05:56AM -15.6419 -52.0361 147° Southeast  Level FlightAware Approximate
05:57AM -15.7639 -51.9533 147° Southeast  Level FlightAware Approximate
05:58AM -15.8860 -51.8704 147° Southeast  Level FlightAware Approximate
05:59AM -16.0080 -51.7875 147° Southeast  Level FlightAware Approximate
06:00AM -16.1300 -51.7044 147° Southeast  Level FlightAware Approximate
06:01AM -16.2519 -51.6213 147° Southeast  Level FlightAware Approximate
06:02AM -16.3738 -51.5380 147° Southeast  Level FlightAware Approximate
06:03AM -16.4957 -51.4546 147° Southeast  Level FlightAware Approximate
06:04AM -16.6176 -51.3712 147° Southeast  Level FlightAware Approximate
06:05AM -16.7394 -51.2876 147° Southeast  Level FlightAware Approximate
06:06AM -16.8612 -51.2039 147° Southeast  Level FlightAware Approximate
06:07AM -16.9829 -51.1201 147° Southeast  Level FlightAware Approximate
06:08AM -17.1047 -51.0362 147° Southeast  Level FlightAware Approximate
06:09AM -17.2263 -50.9522 147° Southeast  Level FlightAware Approximate
06:10AM -17.3480 -50.8681 147° Southeast  Level FlightAware Approximate
06:11AM -17.4696 -50.7839 147° Southeast  Level FlightAware Approximate
06:12AM -17.5912 -50.6995 147° Southeast  Level FlightAware Approximate
06:13AM -17.7127 -50.6151 147° Southeast  Level FlightAware Approximate
06:14AM -17.8342 -50.5305 146° Southeast  Level FlightAware Approximate
06:15AM -17.9557 -50.4458 146° Southeast  Level FlightAware Approximate
06:16AM -18.0771 -50.3610 146° Southeast  Level FlightAware Approximate
06:17AM -18.1985 -50.2761 146° Southeast  Level FlightAware Approximate
06:18AM -18.3199 -50.1910 146° Southeast  Level FlightAware Approximate
06:19AM -18.4412 -50.1059 146° Southeast  Level FlightAware Approximate
06:20AM -18.5625 -50.0206 146° Southeast  Level FlightAware Approximate
06:21AM -18.6837 -49.9352 146° Southeast  Level FlightAware Approximate
06:22AM -18.8049 -49.8497 146° Southeast  Level FlightAware Approximate
06:23AM -18.9261 -49.7640 146° Southeast  Level FlightAware Approximate
06:24AM -19.0472 -49.6782 146° Southeast  Level FlightAware Approximate
06:25AM -19.1683 -49.5923 146° Southeast  Level FlightAware Approximate
06:26AM -19.2894 -49.5063 146° Southeast  Level FlightAware Approximate
06:27AM -19.4104 -49.4202 146° Southeast  Level FlightAware Approximate
06:28AM -19.5313 -49.3339 146° Southeast  Level FlightAware Approximate
06:29AM -19.6522 -49.2475 146° Southeast  Level FlightAware Approximate
06:30AM -19.7731 -49.1609 146° Southeast  Level FlightAware Approximate
06:31AM -19.8940 -49.0742 146° Southeast  Level FlightAware Approximate
06:32AM -20.0148 -48.9874 146° Southeast  Level FlightAware Approximate
06:33AM -20.1355 -48.9005 146° Southeast  Level FlightAware Approximate
06:34AM -20.2562 -48.8134 146° Southeast  Level FlightAware Approximate
06:35AM -20.3769 -48.7262 146° Southeast  Level FlightAware Approximate
06:36AM -20.4975 -48.6389 146° Southeast  Level FlightAware Approximate
06:37AM -20.6181 -48.5514 146° Southeast  Level FlightAware Approximate
06:38AM -20.7386 -48.4638 146° Southeast  Level FlightAware Approximate
06:39AM -20.8591 -48.3760 146° Southeast  Level FlightAware Approximate
06:40AM -20.9796 -48.2881 146° Southeast  Level FlightAware Approximate
06:41AM -21.1000 -48.2001 146° Southeast  Level FlightAware Approximate
06:42AM -21.2204 -48.1119 146° Southeast  Level FlightAware Approximate
06:43AM -21.3407 -48.0236 146° Southeast  Level FlightAware Approximate
06:44AM -21.4609 -47.9351 146° Southeast  Level FlightAware Approximate
06:45AM -21.5812 -47.8465 146° Southeast  Level FlightAware Approximate
06:46AM -21.7004 -47.7563 143° Southeast  Level FlightAware Approximate
06:47AM -21.8234 -47.6726 151° Southeast  Level FlightAware Approximate
06:48AM -21.9404 -47.5798 146° Southeast  Level FlightAware Approximate
06:49AM -22.0612 -47.4918 146° Southeast  Level FlightAware Approximate
06:50AM -22.1818 -47.4034 146° Southeast  Level FlightAware Approximate
06:51AM -22.3024 -47.3149 145° Southeast  Level FlightAware Approximate
06:52AM -22.4212 -47.2235 145° Southeast  Level FlightAware Approximate
06:53AM -22.5397 -47.1316 144° Southeast  Level FlightAware Approximate
06:54AM -22.6569 -47.0379 144° Southeast  Level FlightAware Approximate
06:55AM -22.7744 -46.9442 145° Southeast  Level FlightAware Approximate
06:56AM -22.8943 -46.8543 145° Southeast  Level FlightAware Approximate
06:57AM -23.0154 -46.7662 146° Southeast  Level FlightAware Approximate
06:58AM -23.1326 -46.6727 149° Southeast  Level FlightAware Approximate
06:59AM -23.2555 -46.5876 145° Southeast  Level FlightAware Approximate
07:00AM -23.3755 -46.4975 145° Southeast  Level FlightAware Approximate
07:01AM -23.4167 -46.4667 145° Southeast  Level FlightAware Approximate
07:02AM -23.4321 -46.4695 145° Southeast  Level Estimated
07:03AM -23.4321 -46.4695 145° Southeast  Level Estimated
07:04AM -23.4321 -46.4695 145° Southeast  Level Estimated
07:05AM -23.4321 -46.4695 145° Southeast  Level Estimated